Terminal Aerodrome Forecast
Issued by NWS Corpus Christi, TX

Home | Current Version | Previous Version | Text Only | Print | Product List | Glossary On
Versions: 1 2 3 4 5 6 7 8 9 10 11 12 13 14 15 16 17 18 19 20 21
000
FTUS44 KCRP 221100
TAFCRP
TAF
KCRP 221129Z 2212/2312 20005KT 2SM BR OVC003
      TEMPO 2212/2214 1/2SM FG
     FM221400 20008KT 4SM BR OVC012
     FM221500 22010KT P6SM SCT015
     FM221800 21012KT P6SM SCT250
     FM230100 17006KT P6SM SCT015
     FM230400 16006KT 2SM BR OVC004=

USA.gov is the U.S. government's official web portal to all federal, state and local government web resources and services.